createdAt,value
2023-02-19T00:01:36.673Z,1.20
2023-02-19T00:04:05.344Z,1.07
2023-02-19T00:06:37.623Z,1.00
2023-02-19T00:09:04.317Z,1.10
2023-02-19T00:11:35.137Z,1.00
2023-02-19T00:14:04.706Z,0.97
2023-02-19T00:16:48.738Z,1.00
2023-02-19T00:19:30.306Z,1.20
2023-02-19T00:22:17.565Z,1.07
2023-02-19T00:25:11.862Z,1.17
2023-02-19T00:28:03.245Z,0.93
2023-02-19T00:30:30.170Z,1.20
2023-02-19T00:32:56.780Z,1.10
2023-02-19T00:35:34.717Z,1.10
2023-02-19T00:38:03.900Z,1.13
2023-02-19T00:40:33.193Z,1.00
2023-02-19T00:43:08.071Z,1.10
2023-02-19T00:45:54.563Z,1.20
2023-02-19T00:48:27.291Z,1.20
2023-02-19T00:50:57.081Z,1.30
2023-02-19T00:53:37.153Z,1.00
2023-02-19T00:56:09.174Z,1.17
2023-02-19T00:58:35.860Z,1.10
2023-02-19T01:01:19.237Z,1.20
2023-02-19T01:03:49.187Z,1.30
2023-02-19T01:06:28.075Z,1.03
2023-02-19T01:09:00.949Z,1.00
2023-02-19T01:11:40.351Z,1.10
2023-02-19T01:14:13.923Z,1.40
2023-02-19T01:16:48.594Z,1.03
2023-02-19T01:19:27.377Z,1.00
2023-02-19T01:21:55.525Z,1.00
2023-02-19T01:24:42.182Z,1.20
2023-02-19T01:27:21.467Z,1.00
2023-02-19T01:29:51.627Z,1.00
2023-02-19T01:32:30.837Z,0.90
2023-02-19T01:35:02.016Z,1.00
2023-02-19T01:37:36.616Z,1.20
2023-02-19T01:40:18.371Z,1.00
2023-02-19T01:42:50.392Z,1.20
2023-02-19T01:45:24.793Z,4.07
2023-02-19T01:48:07.822Z,1.10
2023-02-19T01:50:53.001Z,1.23
2023-02-19T01:53:39.069Z,0.87
2023-02-19T01:56:15.475Z,1.20
2023-02-19T01:58:51.902Z,1.10
2023-02-19T02:01:21.722Z,0.93
2023-02-19T02:04:03.334Z,1.07
2023-02-19T02:06:53.926Z,1.00
2023-02-19T02:09:45.264Z,0.90
2023-02-19T02:12:17.373Z,1.10
2023-02-19T02:14:48.030Z,1.03
2023-02-19T02:17:35.344Z,1.10
2023-02-19T02:20:40.567Z,1.20
2023-02-19T02:23:21.085Z,1.10
2023-02-19T02:26:26.029Z,0.90
2023-02-19T02:28:58.949Z,1.00
2023-02-19T02:32:11.514Z,0.90
2023-02-19T02:35:02.488Z,1.10
2023-02-19T02:37:38.986Z,1.00
2023-02-19T02:40:11.974Z,1.00
2023-02-19T02:42:42.316Z,1.00
2023-02-19T02:45:37.718Z,1.10
2023-02-19T02:48:25.846Z,1.20
2023-02-19T02:51:21.632Z,1.20
2023-02-19T02:56:56.409Z,1.00
2023-02-19T02:59:33.261Z,1.20
2023-02-19T03:02:42.677Z,1.10
2023-02-19T03:05:38.416Z,1.10
2023-02-19T03:08:15.083Z,1.10
2023-02-19T03:10:49.364Z,1.20
2023-02-19T03:13:38.044Z,1.10
2023-02-19T03:16:37.193Z,1.10
2023-02-19T03:19:24.801Z,0.90
2023-02-19T03:22:23.583Z,0.97
2023-02-19T03:25:22.593Z,0.93
2023-02-19T03:28:02.821Z,0.80
2023-02-19T03:30:58.931Z,1.00
2023-02-19T03:33:29.890Z,1.03
2023-02-19T03:39:06.190Z,1.10
2023-02-19T03:42:07.047Z,1.00
2023-02-19T03:44:58.545Z,1.10
2023-02-19T03:47:35.235Z,1.00
2023-02-19T03:50:57.939Z,0.90
2023-02-19T03:53:47.892Z,1.20
2023-02-19T03:56:25.467Z,1.10
2023-02-19T03:59:20.467Z,1.03
2023-02-19T04:01:49.503Z,1.10
2023-02-19T04:04:53.494Z,0.97
2023-02-19T04:07:22.921Z,1.00
2023-02-19T04:09:59.029Z,0.97
2023-02-19T04:12:50.719Z,1.00
2023-02-19T04:15:25.523Z,1.10
2023-02-19T04:18:09.305Z,1.10
2023-02-19T04:20:51.368Z,1.10
2023-02-19T04:23:24.900Z,1.00
2023-02-19T04:25:58.094Z,1.10
2023-02-19T04:28:28.824Z,1.00
2023-02-19T04:31:07.612Z,1.10
2023-02-19T04:33:37.370Z,1.00
2023-02-19T04:36:16.119Z,1.10
2023-02-19T04:38:42.743Z,1.10
2023-02-19T04:41:19.691Z,1.20
2023-02-19T04:43:54.108Z,0.93
2023-02-19T04:46:20.828Z,1.17
2023-02-19T04:48:47.423Z,1.10
2023-02-19T04:51:14.053Z,1.20
2023-02-19T04:53:51.805Z,1.00
2023-02-19T04:56:18.514Z,1.00
2023-02-19T04:58:45.525Z,1.13
2023-02-19T05:01:12.885Z,0.90
2023-02-19T05:03:39.704Z,1.00
2023-02-19T05:06:08.097Z,0.97
2023-02-19T05:08:34.793Z,1.00
2023-02-19T05:11:05.034Z,1.10
2023-02-19T05:13:37.591Z,0.90
2023-02-19T05:16:14.175Z,1.20
2023-02-19T05:18:48.546Z,1.20
2023-02-19T05:21:20.922Z,1.00
2023-02-19T05:23:57.316Z,0.97
2023-02-19T05:26:30.979Z,1.20
2023-02-19T05:29:07.164Z,1.00
2023-02-19T05:32:00.228Z,1.10
2023-02-19T05:34:31.412Z,0.90
2023-02-19T05:37:01.129Z,0.90
2023-02-19T05:42:30.693Z,1.00
2023-02-19T05:45:08.229Z,1.00
2023-02-19T05:47:34.797Z,0.93
2023-02-19T05:50:01.344Z,0.90
2023-02-19T05:52:27.899Z,1.10
2023-02-19T05:54:54.452Z,1.10
2023-02-19T05:57:21.598Z,1.03
2023-02-19T05:59:48.232Z,1.00
2023-02-19T06:02:14.745Z,1.20
2023-02-19T06:04:41.303Z,1.00
2023-02-19T06:07:07.862Z,1.10
2023-02-19T06:09:34.398Z,1.03
2023-02-19T06:12:01.000Z,0.90
2023-02-19T06:14:27.548Z,1.10
2023-02-19T06:16:54.091Z,0.90
2023-02-19T06:19:20.654Z,1.20
2023-02-19T06:21:50.176Z,1.20
2023-02-19T06:24:16.740Z,0.93
2023-02-19T06:26:43.355Z,1.10
2023-02-19T06:29:09.934Z,1.30
2023-02-19T06:31:36.621Z,1.03
2023-02-19T06:34:04.866Z,1.03
2023-02-19T06:36:31.604Z,1.07
2023-02-19T06:39:01.149Z,1.10
2023-02-19T06:41:27.698Z,1.07
2023-02-19T06:43:54.226Z,1.30
2023-02-19T06:46:20.909Z,1.00
2023-02-19T06:48:47.649Z,1.17
2023-02-19T06:51:15.846Z,1.17
2023-02-19T06:53:42.605Z,1.10
2023-02-19T06:56:35.835Z,1.10
2023-02-19T06:59:03.594Z,1.00
2023-02-19T07:01:30.811Z,1.10
2023-02-19T07:03:57.573Z,1.20
2023-02-19T07:06:24.729Z,1.30
2023-02-19T07:08:51.628Z,1.10
2023-02-19T07:11:20.972Z,1.00
2023-02-19T07:13:47.568Z,1.10
2023-02-19T07:16:14.194Z,1.50
2023-02-19T07:18:40.827Z,1.10
2023-02-19T07:21:13.482Z,1.57
2023-02-19T07:23:40.715Z,1.17
2023-02-19T07:26:14.706Z,1.30
2023-02-19T07:28:44.950Z,1.10
2023-02-19T07:36:34.580Z,1.20
2023-02-19T07:39:01.202Z,1.50
2023-02-19T07:41:27.849Z,1.70
2023-02-19T07:43:54.484Z,1.67
2023-02-19T07:46:21.022Z,1.90
2023-02-19T07:48:47.597Z,1.50
2023-02-19T07:51:18.971Z,1.77
2023-02-19T07:53:46.419Z,1.53
2023-02-19T07:56:13.156Z,1.27
2023-02-19T07:58:39.809Z,1.40
2023-02-19T08:01:08.014Z,1.90
2023-02-19T08:03:35.711Z,1.60
2023-02-19T08:06:02.495Z,1.40
2023-02-19T08:08:29.027Z,2.00
2023-02-19T08:11:14.132Z,1.60
2023-02-19T08:13:40.686Z,1.50
2023-02-19T08:16:18.346Z,1.57
2023-02-19T08:18:47.446Z,1.60
2023-02-19T08:21:13.979Z,1.50
2023-02-19T08:23:40.648Z,1.87
2023-02-19T08:26:07.237Z,2.17
2023-02-19T08:28:33.791Z,1.80
2023-02-19T08:31:01.785Z,2.10
2023-02-19T08:33:28.461Z,2.23
2023-02-19T08:35:55.343Z,2.43
2023-02-19T08:38:21.916Z,1.73
2023-02-19T08:40:48.541Z,1.97
2023-02-19T08:43:16.016Z,1.90
2023-02-19T08:45:44.246Z,1.33
2023-02-19T08:48:14.246Z,1.30
2023-02-19T08:50:40.814Z,1.37
2023-02-19T08:53:07.365Z,1.30
2023-02-19T08:55:34.059Z,1.57
2023-02-19T08:58:01.016Z,1.50
2023-02-19T09:00:27.749Z,1.60
2023-02-19T09:02:54.305Z,1.67
2023-02-19T09:05:20.873Z,1.43
2023-02-19T09:07:47.435Z,1.60
2023-02-19T09:10:14.132Z,1.60
2023-02-19T09:12:41.017Z,1.37
2023-02-19T09:15:07.828Z,1.40
2023-02-19T09:17:34.430Z,1.57
2023-02-19T09:20:00.992Z,1.47
2023-02-19T09:22:27.508Z,1.33
2023-02-19T09:24:54.130Z,1.30
2023-02-19T09:27:20.772Z,1.40
2023-02-19T09:29:47.306Z,1.20
2023-02-19T09:32:14.031Z,1.53
2023-02-19T09:34:40.739Z,1.40
2023-02-19T09:37:07.299Z,1.30
2023-02-19T09:39:34.232Z,1.30
2023-02-19T09:42:18.802Z,1.37
2023-02-19T09:44:48.282Z,1.47
2023-02-19T09:47:22.536Z,1.40
2023-02-19T09:49:51.369Z,1.43
2023-02-19T09:52:33.042Z,1.10
2023-02-19T09:55:23.375Z,1.53
2023-02-19T09:57:49.902Z,1.53
2023-02-19T10:00:24.421Z,1.40
2023-02-19T10:03:04.421Z,1.57
2023-02-19T10:05:31.723Z,1.47
2023-02-19T10:07:58.307Z,1.63
2023-02-19T10:10:28.867Z,2.03
2023-02-19T10:12:56.869Z,1.70
2023-02-19T10:15:34.621Z,1.40
2023-02-19T10:18:02.086Z,1.60
2023-02-19T10:20:28.758Z,1.63
2023-02-19T10:23:06.253Z,1.50
2023-02-19T10:25:33.626Z,1.80
2023-02-19T10:28:00.684Z,1.60
2023-02-19T10:30:32.470Z,1.80
2023-02-19T10:32:59.246Z,1.70
2023-02-19T10:35:25.755Z,1.80
2023-02-19T10:37:52.330Z,1.60
2023-02-19T10:40:22.992Z,1.73
2023-02-19T10:42:56.225Z,1.60
2023-02-19T10:45:39.681Z,1.60
2023-02-19T10:48:07.424Z,1.70
2023-02-19T10:50:46.983Z,1.57
2023-02-19T10:53:25.938Z,1.60
2023-02-19T10:56:25.512Z,1.43
2023-02-19T10:58:52.142Z,1.20
2023-02-19T11:01:22.538Z,1.70
2023-02-19T11:03:52.518Z,1.70
2023-02-19T11:06:21.023Z,1.50
2023-02-19T11:08:58.711Z,1.70
2023-02-19T11:11:43.380Z,1.73
2023-02-19T11:14:15.732Z,1.57
2023-02-19T11:17:04.921Z,1.53
2023-02-19T11:19:44.244Z,1.60
2023-02-19T11:22:32.939Z,1.87
2023-02-19T11:25:25.799Z,1.70
2023-02-19T11:28:18.098Z,1.40
2023-02-19T11:30:45.552Z,1.20
2023-02-19T11:33:21.830Z,1.53
2023-02-19T11:35:49.740Z,1.33
2023-02-19T11:38:18.922Z,1.40
2023-02-19T11:41:33.196Z,1.40
2023-02-19T11:44:05.733Z,1.47
2023-02-19T11:47:07.428Z,1.50
2023-02-19T11:49:59.403Z,1.23
2023-02-19T11:53:08.013Z,1.50
2023-02-19T11:55:47.048Z,1.30
2023-02-19T11:58:16.464Z,1.20
2023-02-19T12:01:12.266Z,1.30
2023-02-19T12:06:45.902Z,1.77
2023-02-19T12:09:18.540Z,1.60
2023-02-19T12:12:01.774Z,1.40
2023-02-19T12:15:06.186Z,1.40
2023-02-19T12:18:10.007Z,1.67
2023-02-19T12:32:04.066Z,1.40
2023-02-19T12:35:04.909Z,1.40
2023-02-19T12:37:34.326Z,1.50
2023-02-19T12:40:10.184Z,1.50
2023-02-19T12:42:56.120Z,1.60
2023-02-19T12:45:27.124Z,1.53
2023-02-19T12:47:59.745Z,1.90
2023-02-19T12:50:27.271Z,1.47
2023-02-19T12:52:57.915Z,1.63
2023-02-19T12:55:30.100Z,1.60
2023-02-19T12:57:57.043Z,1.90
2023-02-19T13:00:41.048Z,1.40
2023-02-19T13:03:20.850Z,1.80
2023-02-19T13:05:50.995Z,1.60
2023-02-19T13:08:27.813Z,1.60
2023-02-19T13:11:00.834Z,1.53
2023-02-19T13:13:38.474Z,1.60
2023-02-19T13:16:19.441Z,1.50
2023-02-19T13:18:47.032Z,1.40
2023-02-19T13:21:36.360Z,1.50
2023-02-19T13:24:06.395Z,1.83
2023-02-19T13:26:39.051Z,1.40
2023-02-19T13:29:36.852Z,1.80
2023-02-19T13:32:12.714Z,1.30
2023-02-19T13:35:16.728Z,2.07
2023-02-19T13:37:43.252Z,1.60
2023-02-19T13:40:39.206Z,1.70
2023-02-19T13:43:07.865Z,1.43
2023-02-19T13:45:42.407Z,1.70
2023-02-19T13:48:15.066Z,1.43
2023-02-19T13:50:41.831Z,1.30
2023-02-19T13:53:40.748Z,1.77
2023-02-19T13:56:34.971Z,1.60
2023-02-19T13:59:37.095Z,1.70
2023-02-19T14:02:03.583Z,1.20
2023-02-19T14:05:00.118Z,1.13
2023-02-19T14:07:26.606Z,1.93
2023-02-19T14:09:53.589Z,1.30
2023-02-19T14:12:21.520Z,1.30
2023-02-19T14:17:35.652Z,1.50
2023-02-19T14:20:08.668Z,1.90
2023-02-19T14:25:31.956Z,1.73
2023-02-19T14:28:21.780Z,1.90
2023-02-19T14:30:51.301Z,1.83
2023-02-19T14:33:20.817Z,1.70
2023-02-19T14:35:49.015Z,1.53
2023-02-19T14:38:22.629Z,1.97
2023-02-19T14:40:53.209Z,1.77
2023-02-19T14:43:20.209Z,1.70
2023-02-19T14:46:18.766Z,1.83
2023-02-19T14:48:46.690Z,1.60
2023-02-19T14:51:47.566Z,1.93
2023-02-19T14:54:16.810Z,2.10
2023-02-19T14:56:44.930Z,1.70
2023-02-19T14:59:11.349Z,1.80
2023-02-19T15:01:38.075Z,1.83
2023-02-19T15:04:05.365Z,1.90
2023-02-19T15:06:33.771Z,1.70
2023-02-19T15:09:12.394Z,1.80
2023-02-19T15:11:39.220Z,2.07
2023-02-19T15:14:06.526Z,1.70
2023-02-19T15:16:33.943Z,2.07
2023-02-19T15:19:00.567Z,1.80
2023-02-19T15:21:28.655Z,2.20
2023-02-19T15:23:59.891Z,2.00
2023-02-19T15:26:51.958Z,2.37
2023-02-19T15:29:20.280Z,1.77
2023-02-19T15:31:51.810Z,1.97
2023-02-19T15:34:23.075Z,1.83
2023-02-19T15:36:50.644Z,2.53
2023-02-19T15:39:24.957Z,1.83
2023-02-19T15:42:00.163Z,2.10
2023-02-19T15:44:47.811Z,2.20
2023-02-19T15:47:28.159Z,2.13
2023-02-19T15:49:58.971Z,2.10
2023-02-19T15:52:36.150Z,1.93
2023-02-19T15:55:21.580Z,2.00
2023-02-19T15:57:52.773Z,2.07
2023-02-19T16:00:48.439Z,2.17
2023-02-19T16:03:22.863Z,1.80
2023-02-19T16:06:11.417Z,2.10
2023-02-19T16:08:39.613Z,2.00
2023-02-19T16:11:27.527Z,1.87
2023-02-19T16:14:16.669Z,2.10
2023-02-19T16:16:43.267Z,1.87
2023-02-19T16:19:12.513Z,1.73
2023-02-19T16:21:39.154Z,2.33
2023-02-19T16:24:12.580Z,2.03
2023-02-19T16:26:42.727Z,1.70
2023-02-19T16:32:06.418Z,1.97
2023-02-19T16:34:49.186Z,1.77
2023-02-19T16:37:41.166Z,1.93
2023-02-19T16:40:07.774Z,2.00
2023-02-19T16:42:49.965Z,1.80
2023-02-19T16:45:16.968Z,1.87
2023-02-19T16:47:48.514Z,2.03
2023-02-19T16:50:16.145Z,2.03
2023-02-19T16:52:53.424Z,2.20
2023-02-19T16:55:20.002Z,1.77
2023-02-19T16:57:46.552Z,1.80
2023-02-19T17:00:37.079Z,2.10
2023-02-19T17:03:09.408Z,1.90
2023-02-19T17:05:36.354Z,2.13
2023-02-19T17:08:06.273Z,1.60
2023-02-19T17:10:33.592Z,2.30
2023-02-19T17:13:00.190Z,2.53
2023-02-19T17:15:26.775Z,2.20
2023-02-19T17:17:53.488Z,2.50
2023-02-19T17:20:27.494Z,2.50
2023-02-19T17:22:54.915Z,2.77
2023-02-19T17:25:21.514Z,2.83
2023-02-19T17:27:48.066Z,2.70
2023-02-19T17:30:25.575Z,3.17
2023-02-19T17:32:52.193Z,3.97
2023-02-19T17:35:18.707Z,3.30
2023-02-19T17:37:45.224Z,2.70
2023-02-19T17:40:32.134Z,3.40
2023-02-19T17:42:59.554Z,3.23
2023-02-19T17:45:26.072Z,2.87
2023-02-19T17:47:53.128Z,2.83
2023-02-19T17:50:22.014Z,2.40
2023-02-19T17:52:48.537Z,2.30
2023-02-19T17:55:18.299Z,2.90
2023-02-19T17:57:45.667Z,2.70
2023-02-19T18:00:35.272Z,2.60
2023-02-19T18:03:01.859Z,2.47
2023-02-19T18:05:28.372Z,2.47
2023-02-19T18:07:54.954Z,2.33
2023-02-19T18:10:23.354Z,2.40
2023-02-19T18:12:50.069Z,2.40
2023-02-19T18:15:21.333Z,2.70
2023-02-19T18:17:47.897Z,2.27
2023-02-19T18:20:21.735Z,2.17
2023-02-19T18:22:48.383Z,2.40
2023-02-19T18:25:15.604Z,2.43
2023-02-19T18:27:42.121Z,2.70
2023-02-19T18:30:12.041Z,2.37
2023-02-19T18:32:38.712Z,2.53
2023-02-19T18:35:05.859Z,2.50
2023-02-19T18:37:33.805Z,2.17
2023-02-19T18:40:00.539Z,2.50
2023-02-19T18:42:27.108Z,2.60
2023-02-19T18:44:53.753Z,2.13
2023-02-19T18:47:20.577Z,2.20
2023-02-19T18:49:50.480Z,2.20
2023-02-19T18:52:20.305Z,2.10
2023-02-19T18:54:47.741Z,2.07
2023-02-19T18:57:14.434Z,1.97
2023-02-19T18:59:41.859Z,2.00
2023-02-19T19:02:09.389Z,2.07
2023-02-19T19:04:36.777Z,1.70
2023-02-19T19:07:04.299Z,2.33
2023-02-19T19:09:30.829Z,2.47
2023-02-19T19:11:57.388Z,2.27
2023-02-19T19:14:23.941Z,2.13
2023-02-19T19:16:50.513Z,1.80
2023-02-19T19:19:17.332Z,2.20
2023-02-19T19:21:43.853Z,1.90
2023-02-19T19:24:10.404Z,2.50
2023-02-19T19:26:36.980Z,1.93
2023-02-19T19:29:04.385Z,1.93
2023-02-19T19:31:34.919Z,2.27
2023-02-19T19:34:01.556Z,2.17
2023-02-19T19:36:28.105Z,2.00
2023-02-19T19:38:54.668Z,2.10
2023-02-19T19:41:21.404Z,1.87
2023-02-19T19:43:49.950Z,2.77
2023-02-19T19:46:19.102Z,2.27
2023-02-19T19:48:46.819Z,2.50
2023-02-19T19:51:13.620Z,2.03
2023-02-19T19:53:40.277Z,2.67
2023-02-19T19:56:06.993Z,2.00
2023-02-19T19:58:34.589Z,1.63
2023-02-19T20:01:01.814Z,1.80
2023-02-19T20:03:29.082Z,2.00
2023-02-19T20:05:55.635Z,2.03
2023-02-19T20:08:22.270Z,2.27
2023-02-19T20:10:49.165Z,2.03
2023-02-19T20:13:17.581Z,2.27
2023-02-19T20:15:44.227Z,2.10
2023-02-19T20:18:10.761Z,2.10
2023-02-19T20:20:37.442Z,2.10
2023-02-19T20:23:04.018Z,2.07
2023-02-19T20:25:30.594Z,1.87
2023-02-19T20:27:57.098Z,1.83
2023-02-19T20:30:24.300Z,2.00
2023-02-19T20:32:50.935Z,1.97
2023-02-19T20:35:17.584Z,2.20
2023-02-19T20:37:44.165Z,2.60
2023-02-19T20:40:11.285Z,1.70
2023-02-19T20:42:37.930Z,2.00
2023-02-19T20:45:05.120Z,2.17
2023-02-19T20:47:31.635Z,2.10
2023-02-19T20:49:58.144Z,2.30
2023-02-19T20:52:24.851Z,1.87
2023-02-19T20:54:55.807Z,2.10
2023-02-19T20:57:22.547Z,1.80
2023-02-19T20:59:49.118Z,2.17
2023-02-19T21:02:24.672Z,2.07
2023-02-19T21:04:51.275Z,1.80
2023-02-19T21:07:17.830Z,2.00
2023-02-19T21:09:44.393Z,2.17
2023-02-19T21:12:10.998Z,2.27
2023-02-19T21:14:37.563Z,2.00
2023-02-19T21:17:04.329Z,1.83
2023-02-19T21:19:30.876Z,1.80
2023-02-19T21:21:57.376Z,2.00
2023-02-19T21:24:23.897Z,1.90
2023-02-19T21:26:50.677Z,1.90
2023-02-19T21:29:19.712Z,2.03
2023-02-19T21:31:51.042Z,2.20
2023-02-19T21:34:19.874Z,1.83
2023-02-19T21:36:46.529Z,2.13
2023-02-19T21:39:14.826Z,1.57
2023-02-19T21:41:41.469Z,1.90
2023-02-19T21:44:09.159Z,2.00
2023-02-19T21:46:35.732Z,1.77
2023-02-19T21:49:03.687Z,1.70
2023-02-19T21:51:32.021Z,1.90
2023-02-19T21:53:58.808Z,2.00
2023-02-19T21:56:29.173Z,1.70
2023-02-19T21:58:55.853Z,1.70
2023-02-19T22:01:23.169Z,2.03
2023-02-19T22:03:49.698Z,1.70
2023-02-19T22:06:16.284Z,1.97
2023-02-19T22:08:43.341Z,2.33
2023-02-19T22:11:09.951Z,1.60
2023-02-19T22:13:36.463Z,1.93
2023-02-19T22:16:03.258Z,2.00
2023-02-19T22:18:29.819Z,2.07
2023-02-19T22:20:56.322Z,2.17
2023-02-19T22:23:22.877Z,2.30
2023-02-19T22:25:49.385Z,2.10
2023-02-19T22:28:15.926Z,2.10
2023-02-19T22:30:43.185Z,2.03
2023-02-19T22:33:09.930Z,1.83
2023-02-19T22:35:36.628Z,2.30
2023-02-19T22:38:03.231Z,2.23
2023-02-19T22:40:29.782Z,2.00
2023-02-19T22:42:56.446Z,2.27
2023-02-19T22:45:23.175Z,1.80
2023-02-19T22:47:49.903Z,2.00
2023-02-19T22:50:20.359Z,2.10
2023-02-19T22:52:46.886Z,2.00
2023-02-19T22:55:13.519Z,2.20
2023-02-19T22:57:40.106Z,2.53
2023-02-19T23:00:07.250Z,2.13
2023-02-19T23:02:33.780Z,2.37
2023-02-19T23:05:00.359Z,2.13
2023-02-19T23:07:26.882Z,2.10
2023-02-19T23:09:53.413Z,2.10
2023-02-19T23:12:19.886Z,2.30
2023-02-19T23:14:46.814Z,2.40
2023-02-19T23:17:13.318Z,2.10
2023-02-19T23:19:39.892Z,2.20
2023-02-19T23:22:06.633Z,2.23
2023-02-19T23:24:33.132Z,2.20
2023-02-19T23:27:00.681Z,2.30
2023-02-19T23:29:27.539Z,2.40
2023-02-19T23:31:54.382Z,2.10
2023-02-19T23:34:21.222Z,2.30
2023-02-19T23:36:49.034Z,2.03
2023-02-19T23:39:16.591Z,2.30
2023-02-19T23:41:47.573Z,2.03
2023-02-19T23:44:14.122Z,2.07
2023-02-19T23:46:40.659Z,2.40
2023-02-19T23:49:07.177Z,2.20
2023-02-19T23:51:33.878Z,2.50
2023-02-19T23:54:00.510Z,2.20
2023-02-19T23:56:27.479Z,2.00
2023-02-19T23:58:54.044Z,2.23
